sensor_id;sensor_type;location;lat;lon;timestamp;pressure;altitude;pressure_sealevel;temperature;humidity
76024;BME280;64719;52.124;6.226;2022-11-18T00:00:47;99696.53;;;6.41;100.00
76024;BME280;64719;52.124;6.226;2022-11-18T00:03:15;99692.78;;;6.42;100.00
76024;BME280;64719;52.124;6.226;2022-11-18T00:05:42;99699.56;;;6.33;100.00
76024;BME280;64719;52.124;6.226;2022-11-18T00:08:08;99701.66;;;6.31;100.00
76024;BME280;64719;52.124;6.226;2022-11-18T00:10:36;99704.25;;;6.26;100.00
76024;BME280;64719;52.124;6.226;2022-11-18T00:13:04;99705.41;;;6.30;100.00
76024;BME280;64719;52.124;6.226;2022-11-18T00:15:48;99709.41;;;6.39;100.00
76024;BME280;64719;52.124;6.226;2022-11-18T00:18:14;99712.09;;;6.39;100.00
76024;BME280;64719;52.124;6.226;2022-11-18T00:20:41;99717.97;;;6.25;100.00
76024;BME280;64719;52.124;6.226;2022-11-18T00:23:07;99726.28;;;6.35;100.00
76024;BME280;64719;52.124;6.226;2022-11-18T00:25:34;99729.56;;;6.37;100.00
76024;BME280;64719;52.124;6.226;2022-11-18T00:28:00;99722.19;;;6.44;100.00
76024;BME280;64719;52.124;6.226;2022-11-18T00:30:28;99732.28;;;6.48;100.00
76024;BME280;64719;52.124;6.226;2022-11-18T00:32:55;99733.09;;;6.60;100.00
76024;BME280;64719;52.124;6.226;2022-11-18T00:35:21;99734.75;;;6.61;100.00
76024;BME280;64719;52.124;6.226;2022-11-18T00:37:48;99740.38;;;6.60;100.00
76024;BME280;64719;52.124;6.226;2022-11-18T00:40:14;99739.31;;;6.61;100.00
76024;BME280;64719;52.124;6.226;2022-11-18T00:42:41;99737.56;;;6.55;100.00
76024;BME280;64719;52.124;6.226;2022-11-18T00:45:15;99740.38;;;6.60;100.00
76024;BME280;64719;52.124;6.226;2022-11-18T00:47:43;99748.56;;;6.53;100.00
76024;BME280;64719;52.124;6.226;2022-11-18T00:50:10;99744.59;;;6.56;100.00
76024;BME280;64719;52.124;6.226;2022-11-18T00:52:37;99746.81;;;6.59;100.00
76024;BME280;64719;52.124;6.226;2022-11-18T00:55:04;99753.50;;;6.68;100.00
76024;BME280;64719;52.124;6.226;2022-11-18T00:57:31;99752.00;;;6.72;100.00
76024;BME280;64719;52.124;6.226;2022-11-18T00:59:57;99757.38;;;6.72;100.00
76024;BME280;64719;52.124;6.226;2022-11-18T01:02:24;99763.34;;;6.62;100.00
76024;BME280;64719;52.124;6.226;2022-11-18T01:04:52;99757.03;;;6.68;100.00
76024;BME280;64719;52.124;6.226;2022-11-18T01:07:18;99757.84;;;6.69;100.00
76024;BME280;64719;52.124;6.226;2022-11-18T01:09:45;99766.50;;;6.71;100.00
76024;BME280;64719;52.124;6.226;2022-11-18T01:12:11;99758.78;;;6.63;100.00
76024;BME280;64719;52.124;6.226;2022-11-18T01:14:57;99757.72;;;6.64;100.00
76024;BME280;64719;52.124;6.226;2022-11-18T01:17:23;99758.19;;;6.61;100.00
76024;BME280;64719;52.124;6.226;2022-11-18T01:19:51;99763.91;;;6.53;100.00
76024;BME280;64719;52.124;6.226;2022-11-18T01:22:18;99770.28;;;6.58;100.00
76024;BME280;64719;52.124;6.226;2022-11-18T01:24:44;99771.53;;;6.56;100.00
76024;BME280;64719;52.124;6.226;2022-11-18T01:27:11;99776.13;;;6.55;100.00
76024;BME280;64719;52.124;6.226;2022-11-18T01:29:37;99783.94;;;6.45;100.00
76024;BME280;64719;52.124;6.226;2022-11-18T01:32:04;99783.38;;;6.55;100.00
76024;BME280;64719;52.124;6.226;2022-11-18T01:34:31;99779.00;;;6.42;100.00
76024;BME280;64719;52.124;6.226;2022-11-18T01:36:59;99785.22;;;6.43;100.00
76024;BME280;64719;52.124;6.226;2022-11-18T01:39:25;99786.47;;;6.40;100.00
76024;BME280;64719;52.124;6.226;2022-11-18T01:41:52;99793.16;;;6.38;100.00
76024;BME280;64719;52.124;6.226;2022-11-18T01:44:56;99792.47;;;6.42;100.00
76024;BME280;64719;52.124;6.226;2022-11-18T01:47:23;99801.38;;;6.43;100.00
76024;BME280;64719;52.124;6.226;2022-11-18T01:49:50;99799.53;;;6.43;100.00
76024;BME280;64719;52.124;6.226;2022-11-18T01:52:19;99797.56;;;6.62;100.00
76024;BME280;64719;52.124;6.226;2022-11-18T01:54:49;99801.69;;;6.76;100.00
76024;BME280;64719;52.124;6.226;2022-11-18T01:57:20;99795.22;;;6.77;100.00
76024;BME280;64719;52.124;6.226;2022-11-18T01:59:50;99793.84;;;6.86;100.00
76024;BME280;64719;52.124;6.226;2022-11-18T02:02:19;99796.19;;;7.05;100.00
76024;BME280;64719;52.124;6.226;2022-11-18T02:04:47;99807.22;;;7.04;100.00
76024;BME280;64719;52.124;6.226;2022-11-18T02:07:15;99805.34;;;7.04;100.00
76024;BME280;64719;52.124;6.226;2022-11-18T02:09:44;99812.03;;;7.13;100.00
76024;BME280;64719;52.124;6.226;2022-11-18T02:12:11;99818.25;;;7.14;100.00
76024;BME280;64719;52.124;6.226;2022-11-18T02:14:41;99812.41;;;7.17;100.00
76024;BME280;64719;52.124;6.226;2022-11-18T02:17:16;99824.22;;;7.16;100.00
76024;BME280;64719;52.124;6.226;2022-11-18T02:20:23;99822.81;;;7.13;100.00
76024;BME280;64719;52.124;6.226;2022-11-18T02:23:20;99825.06;;;7.16;100.00
76024;BME280;64719;52.124;6.226;2022-11-18T02:26:03;99831.50;;;7.15;100.00
76024;BME280;64719;52.124;6.226;2022-11-18T02:28:35;99831.59;;;7.20;100.00
76024;BME280;64719;52.124;6.226;2022-11-18T02:31:10;99830.44;;;7.16;100.00
76024;BME280;64719;52.124;6.226;2022-11-18T02:33:44;99832.06;;;7.17;100.00
76024;BME280;64719;52.124;6.226;2022-11-18T02:36:17;99838.19;;;7.24;100.00
76024;BME280;64719;52.124;6.226;2022-11-18T02:38:51;99839.00;;;7.25;100.00
76024;BME280;64719;52.124;6.226;2022-11-18T02:41:24;99840.75;;;7.19;100.00
76024;BME280;64719;52.124;6.226;2022-11-18T02:43:55;99843.69;;;7.18;100.00
76024;BME280;64719;52.124;6.226;2022-11-18T02:46:26;99842.31;;;7.15;100.00
76024;BME280;64719;52.124;6.226;2022-11-18T02:48:55;99835.97;;;7.21;100.00
76024;BME280;64719;52.124;6.226;2022-11-18T02:51:24;99846.06;;;7.26;100.00
76024;BME280;64719;52.124;6.226;2022-11-18T02:53:54;99844.16;;;7.26;100.00
76024;BME280;64719;52.124;6.226;2022-11-18T02:56:23;99848.06;;;7.30;100.00
76024;BME280;64719;52.124;6.226;2022-11-18T02:58:51;99848.38;;;7.34;100.00
76024;BME280;64719;52.124;6.226;2022-11-18T03:01:20;99857.31;;;7.34;100.00
76024;BME280;64719;52.124;6.226;2022-11-18T03:03:49;99859.91;;;7.41;100.00
76024;BME280;64719;52.124;6.226;2022-11-18T03:06:24;99865.28;;;7.41;100.00
76024;BME280;64719;52.124;6.226;2022-11-18T03:08:59;99867.28;;;7.34;100.00
76024;BME280;64719;52.124;6.226;2022-11-18T03:11:30;99863.53;;;7.35;100.00
76024;BME280;64719;52.124;6.226;2022-11-18T03:14:15;99866.09;;;7.30;100.00
76024;BME280;64719;52.124;6.226;2022-11-18T03:16:53;99873.72;;;7.33;100.00
76024;BME280;64719;52.124;6.226;2022-11-18T03:19:33;99875.50;;;7.27;100.00
76024;BME280;64719;52.124;6.226;2022-11-18T03:22:05;99876.53;;;7.26;100.00
76024;BME280;64719;52.124;6.226;2022-11-18T03:24:38;99879.59;;;7.30;100.00
76024;BME280;64719;52.124;6.226;2022-11-18T03:27:09;99885.81;;;7.30;100.00
76024;BME280;64719;52.124;6.226;2022-11-18T03:29:40;99886.84;;;7.29;100.00
76024;BME280;64719;52.124;6.226;2022-11-18T03:32:11;99887.94;;;7.28;100.00
76024;BME280;64719;52.124;6.226;2022-11-18T03:34:44;99886.38;;;7.32;100.00
76024;BME280;64719;52.124;6.226;2022-11-18T03:37:13;99890.53;;;7.35;100.00
76024;BME280;64719;52.124;6.226;2022-11-18T03:39:44;99894.84;;;7.36;100.00
76024;BME280;64719;52.124;6.226;2022-11-18T03:42:17;99897.31;;;7.37;100.00
76024;BME280;64719;52.124;6.226;2022-11-18T03:44:49;99908.47;;;7.41;100.00
76024;BME280;64719;52.124;6.226;2022-11-18T03:47:21;99899.53;;;7.40;100.00
76024;BME280;64719;52.124;6.226;2022-11-18T03:49:54;99898.38;;;7.48;100.00
76024;BME280;64719;52.124;6.226;2022-11-18T03:52:25;99909.03;;;7.43;100.00
76024;BME280;64719;52.124;6.226;2022-11-18T03:54:56;99902.34;;;7.34;100.00
76024;BME280;64719;52.124;6.226;2022-11-18T03:57:29;99917.03;;;7.38;100.00
76024;BME280;64719;52.124;6.226;2022-11-18T04:00:02;99905.28;;;7.32;100.00
76024;BME280;64719;52.124;6.226;2022-11-18T04:02:31;99913.13;;;7.22;100.00
76024;BME280;64719;52.124;6.226;2022-11-18T04:05:02;99920.66;;;7.32;100.00
76024;BME280;64719;52.124;6.226;2022-11-18T04:07:31;99928.06;;;7.36;100.00
76024;BME280;64719;52.124;6.226;2022-11-18T04:10:05;99919.84;;;7.31;100.00
76024;BME280;64719;52.124;6.226;2022-11-18T04:12:37;99927.22;;;7.36;100.00
76024;BME280;64719;52.124;6.226;2022-11-18T04:15:05;99926.63;;;7.34;100.00
76024;BME280;64719;52.124;6.226;2022-11-18T04:17:32;99932.25;;;7.32;100.00
76024;BME280;64719;52.124;6.226;2022-11-18T04:20:00;99939.09;;;7.35;100.00
76024;BME280;64719;52.124;6.226;2022-11-18T04:22:26;99945.19;;;7.30;100.00
76024;BME280;64719;52.124;6.226;2022-11-18T04:24:53;99944.97;;;7.32;100.00
76024;BME280;64719;52.124;6.226;2022-11-18T04:27:19;99943.78;;;7.39;100.00
76024;BME280;64719;52.124;6.226;2022-11-18T04:29:46;99941.44;;;7.43;100.00
76024;BME280;64719;52.124;6.226;2022-11-18T04:32:12;99946.72;;;7.38;100.00
76024;BME280;64719;52.124;6.226;2022-11-18T04:34:38;99944.72;;;7.45;100.00
76024;BME280;64719;52.124;6.226;2022-11-18T04:37:06;99955.28;;;7.46;100.00
76024;BME280;64719;52.124;6.226;2022-11-18T04:39:33;99953.41;;;7.47;100.00
76024;BME280;64719;52.124;6.226;2022-11-18T04:41:59;99963.03;;;7.43;100.00
76024;BME280;64719;52.124;6.226;2022-11-18T04:44:27;99965.03;;;7.47;100.00
76024;BME280;64719;52.124;6.226;2022-11-18T04:46:57;99965.97;;;7.53;100.00
76024;BME280;64719;52.124;6.226;2022-11-18T04:49:25;99974.66;;;7.55;100.00
76024;BME280;64719;52.124;6.226;2022-11-18T04:51:52;99975.63;;;7.61;100.00
76024;BME280;64719;52.124;6.226;2022-11-18T04:54:20;99979.47;;;7.65;100.00
76024;BME280;64719;52.124;6.226;2022-11-18T04:56:48;99983.47;;;7.62;100.00
76024;BME280;64719;52.124;6.226;2022-11-18T04:59:16;99983.25;;;7.64;100.00
76024;BME280;64719;52.124;6.226;2022-11-18T05:01:43;99986.97;;;7.63;100.00
76024;BME280;64719;52.124;6.226;2022-11-18T05:04:12;99990.84;;;7.55;100.00
76024;BME280;64719;52.124;6.226;2022-11-18T05:06:39;99996.38;;;7.60;100.00
76024;BME280;64719;52.124;6.226;2022-11-18T05:09:05;99999.91;;;7.61;100.00
76024;BME280;64719;52.124;6.226;2022-11-18T05:11:33;99995.31;;;7.61;100.00
76024;BME280;64719;52.124;6.226;2022-11-18T05:14:17;99999.69;;;7.62;100.00
76024;BME280;64719;52.124;6.226;2022-11-18T05:16:44;99997.91;;;7.68;100.00
76024;BME280;64719;52.124;6.226;2022-11-18T05:19:10;99992.41;;;7.74;100.00
76024;BME280;64719;52.124;6.226;2022-11-18T05:21:37;99998.75;;;7.68;100.00
76024;BME280;64719;52.124;6.226;2022-11-18T05:24:04;100004.75;;;7.70;100.00
76024;BME280;64719;52.124;6.226;2022-11-18T05:26:31;100005.78;;;7.69;100.00
76024;BME280;64719;52.124;6.226;2022-11-18T05:28:59;100009.91;;;7.72;100.00
76024;BME280;64719;52.124;6.226;2022-11-18T05:31:25;100004.28;;;7.73;100.00
76024;BME280;64719;52.124;6.226;2022-11-18T05:33:52;100018.44;;;7.69;100.00
76024;BME280;64719;52.124;6.226;2022-11-18T05:36:19;100015.19;;;7.67;100.00
76024;BME280;64719;52.124;6.226;2022-11-18T05:38:46;100019.03;;;7.71;100.00
76024;BME280;64719;52.124;6.226;2022-11-18T05:41:13;100017.66;;;7.68;100.00
76024;BME280;64719;52.124;6.226;2022-11-18T05:44:03;100028.69;;;7.67;100.00
76024;BME280;64719;52.124;6.226;2022-11-18T05:46:29;100028.91;;;7.65;100.00
76024;BME280;64719;52.124;6.226;2022-11-18T05:48:56;100034.06;;;7.67;100.00
76024;BME280;64719;52.124;6.226;2022-11-18T05:51:22;100024.31;;;7.66;100.00
76024;BME280;64719;52.124;6.226;2022-11-18T05:53:50;100038.03;;;7.64;100.00
76024;BME280;64719;52.124;6.226;2022-11-18T05:56:19;100039.25;;;7.68;100.00
76024;BME280;64719;52.124;6.226;2022-11-18T05:58:47;100041.47;;;7.71;100.00
76024;BME280;64719;52.124;6.226;2022-11-18T06:01:18;100043.56;;;7.69;100.00
76024;BME280;64719;52.124;6.226;2022-11-18T06:03:46;100042.63;;;7.64;100.00
76024;BME280;64719;52.124;6.226;2022-11-18T06:06:15;100048.84;;;7.64;100.00
76024;BME280;64719;52.124;6.226;2022-11-18T06:08:45;100062.34;;;7.64;100.00
76024;BME280;64719;52.124;6.226;2022-11-18T06:11:16;100058.25;;;7.62;100.00
76024;BME280;64719;52.124;6.226;2022-11-18T06:13:47;100053.44;;;7.64;100.00
76024;BME280;64719;52.124;6.226;2022-11-18T06:16:20;100062.56;;;7.63;100.00
76024;BME280;64719;52.124;6.226;2022-11-18T06:18:48;100058.69;;;7.59;100.00
76024;BME280;64719;52.124;6.226;2022-11-18T06:21:15;100065.41;;;7.56;100.00
76024;BME280;64719;52.124;6.226;2022-11-18T06:23:42;100070.91;;;7.61;100.00
76024;BME280;64719;52.124;6.226;2022-11-18T06:26:09;100069.50;;;7.59;100.00
76024;BME280;64719;52.124;6.226;2022-11-18T06:28:36;100062.31;;;7.53;100.00
76024;BME280;64719;52.124;6.226;2022-11-18T06:31:04;100079.00;;;7.61;100.00
76024;BME280;64719;52.124;6.226;2022-11-18T06:33:32;100088.53;;;7.64;100.00
76024;BME280;64719;52.124;6.226;2022-11-18T06:35:58;100086.31;;;7.61;100.00
76024;BME280;64719;52.124;6.226;2022-11-18T06:38:25;100095.91;;;7.57;100.00
76024;BME280;64719;52.124;6.226;2022-11-18T06:40:51;100095.91;;;7.57;100.00
76024;BME280;64719;52.124;6.226;2022-11-18T06:43:18;100101.66;;;7.60;100.00
76024;BME280;64719;52.124;6.226;2022-11-18T06:46:03;100106.28;;;7.71;100.00
76024;BME280;64719;52.124;6.226;2022-11-18T06:48:49;100114.63;;;7.70;100.00
76024;BME280;64719;52.124;6.226;2022-11-18T06:51:16;100116.72;;;7.68;100.00
76024;BME280;64719;52.124;6.226;2022-11-18T06:53:42;100127.50;;;7.68;100.00
76024;BME280;64719;52.124;6.226;2022-11-18T06:56:10;100127.88;;;7.71;100.00
76024;BME280;64719;52.124;6.226;2022-11-18T06:58:37;100130.13;;;7.74;100.00
76024;BME280;64719;52.124;6.226;2022-11-18T07:01:11;100139.41;;;7.78;100.00
76024;BME280;64719;52.124;6.226;2022-11-18T07:03:38;100144.22;;;7.76;100.00
76024;BME280;64719;52.124;6.226;2022-11-18T07:06:07;100141.06;;;7.79;100.00
76024;BME280;64719;52.124;6.226;2022-11-18T07:08:34;100145.88;;;7.77;100.00
76024;BME280;64719;52.124;6.226;2022-11-18T07:11:01;100144.00;;;7.78;100.00
76024;BME280;64719;52.124;6.226;2022-11-18T07:13:29;100151.25;;;7.77;100.00
76024;BME280;64719;52.124;6.226;2022-11-18T07:16:01;100154.66;;;7.73;100.00
76024;BME280;64719;52.124;6.226;2022-11-18T07:18:28;100160.19;;;7.78;100.00
76024;BME280;64719;52.124;6.226;2022-11-18T07:20:55;100167.19;;;7.67;100.00
76024;BME280;64719;52.124;6.226;2022-11-18T07:23:23;100173.25;;;7.63;100.00
76024;BME280;64719;52.124;6.226;2022-11-18T07:25:53;100181.97;;;7.65;100.00
76024;BME280;64719;52.124;6.226;2022-11-18T07:28:19;100177.63;;;7.64;100.00
76024;BME280;64719;52.124;6.226;2022-11-18T07:30:46;100180.44;;;7.69;100.00
76024;BME280;64719;52.124;6.226;2022-11-18T07:33:12;100181.19;;;7.76;100.00
76024;BME280;64719;52.124;6.226;2022-11-18T07:35:39;100189.22;;;7.82;100.00
76024;BME280;64719;52.124;6.226;2022-11-18T07:38:05;100187.22;;;7.89;100.00
76024;BME280;64719;52.124;6.226;2022-11-18T07:40:33;100183.38;;;7.97;100.00
76024;BME280;64719;52.124;6.226;2022-11-18T07:43:00;100186.78;;;8.04;100.00
76024;BME280;64719;52.124;6.226;2022-11-18T07:45:26;100190.31;;;8.04;100.00
76024;BME280;64719;52.124;6.226;2022-11-18T07:47:53;100194.19;;;8.08;100.00
76024;BME280;64719;52.124;6.226;2022-11-18T07:50:19;100202.22;;;8.15;100.00
76024;BME280;64719;52.124;6.226;2022-11-18T07:52:46;100202.72;;;8.23;100.00
76024;BME280;64719;52.124;6.226;2022-11-18T07:55:12;100207.56;;;8.33;100.00
76024;BME280;64719;52.124;6.226;2022-11-18T07:57:40;100214.88;;;8.44;100.00
76024;BME280;64719;52.124;6.226;2022-11-18T08:00:07;100218.66;;;8.54;100.00
76024;BME280;64719;52.124;6.226;2022-11-18T08:02:34;100214.88;;;8.55;100.00
76024;BME280;64719;52.124;6.226;2022-11-18T08:05:01;100223.13;;;8.60;100.00
76024;BME280;64719;52.124;6.226;2022-11-18T08:07:27;100218.44;;;8.67;100.00
76024;BME280;64719;52.124;6.226;2022-11-18T08:09:54;100224.66;;;8.79;100.00
76024;BME280;64719;52.124;6.226;2022-11-18T08:12:20;100233.00;;;8.89;100.00
76024;BME280;64719;52.124;6.226;2022-11-18T08:14:48;100235.97;;;8.99;100.00
76024;BME280;64719;52.124;6.226;2022-11-18T08:17:14;100245.00;;;9.05;100.00
76024;BME280;64719;52.124;6.226;2022-11-18T08:19:41;100245.72;;;9.12;100.00
76024;BME280;64719;52.124;6.226;2022-11-18T08:22:07;100253.47;;;9.08;100.00
76024;BME280;64719;52.124;6.226;2022-11-18T08:24:34;100257.81;;;9.09;100.00
76024;BME280;64719;52.124;6.226;2022-11-18T08:27:00;100253.25;;;9.10;100.00
76024;BME280;64719;52.124;6.226;2022-11-18T08:29:27;100252.41;;;9.09;100.00
76024;BME280;64719;52.124;6.226;2022-11-18T08:31:55;100266.41;;;9.06;100.00
76024;BME280;64719;52.124;6.226;2022-11-18T08:34:21;100267.13;;;9.13;100.00
76024;BME280;64719;52.124;6.226;2022-11-18T08:36:47;100264.06;;;9.21;100.00
76024;BME280;64719;52.124;6.226;2022-11-18T08:39:14;100261.81;;;9.30;99.95
76024;BME280;64719;52.124;6.226;2022-11-18T08:41:42;100259.56;;;9.39;99.86
76024;BME280;64719;52.124;6.226;2022-11-18T08:44:12;100275.06;;;9.55;98.73
76024;BME280;64719;52.124;6.226;2022-11-18T08:46:38;100273.13;;;9.78;98.56
76024;BME280;64719;52.124;6.226;2022-11-18T08:49:06;100275.41;;;10.54;97.48
76024;BME280;64719;52.124;6.226;2022-11-18T08:51:33;100280.34;;;11.06;92.94
76024;BME280;64719;52.124;6.226;2022-11-18T08:53:59;100286.94;;;10.77;94.92
76024;BME280;64719;52.124;6.226;2022-11-18T08:56:26;100285.34;;;10.65;95.42
76024;BME280;64719;52.124;6.226;2022-11-18T08:58:52;100285.28;;;10.43;95.84
76024;BME280;64719;52.124;6.226;2022-11-18T09:01:19;100288.75;;;10.72;95.97
76024;BME280;64719;52.124;6.226;2022-11-18T09:03:46;100291.16;;;11.40;92.52
76024;BME280;64719;52.124;6.226;2022-11-18T09:06:15;100291.63;;;12.44;91.49
76024;BME280;64719;52.124;6.226;2022-11-18T09:08:42;100294.81;;;12.36;89.97
76024;BME280;64719;52.124;6.226;2022-11-18T09:11:11;100300.81;;;11.69;89.91
76024;BME280;64719;52.124;6.226;2022-11-18T09:13:38;100301.56;;;10.76;92.51
76024;BME280;64719;52.124;6.226;2022-11-18T09:16:05;100301.22;;;11.61;89.44
76024;BME280;64719;52.124;6.226;2022-11-18T09:18:33;100295.88;;;12.35;86.45
76024;BME280;64719;52.124;6.226;2022-11-18T09:21:01;100303.06;;;12.20;86.23
76024;BME280;64719;52.124;6.226;2022-11-18T09:23:29;100300.28;;;12.68;84.45
76024;BME280;64719;52.124;6.226;2022-11-18T09:25:57;100313.47;;;12.81;84.37
76024;BME280;64719;52.124;6.226;2022-11-18T09:28:24;100318.56;;;13.82;85.04
76024;BME280;64719;52.124;6.226;2022-11-18T09:30:50;100309.28;;;15.10;80.80
76024;BME280;64719;52.124;6.226;2022-11-18T09:33:17;100308.56;;;16.03;78.14
76024;BME280;64719;52.124;6.226;2022-11-18T09:35:44;100323.19;;;16.81;84.51
76024;BME280;64719;52.124;6.226;2022-11-18T09:38:10;100326.03;;;16.71;79.75
76024;BME280;64719;52.124;6.226;2022-11-18T09:40:44;100326.81;;;17.44;82.36
76024;BME280;64719;52.124;6.226;2022-11-18T09:43:19;100330.13;;;17.69;82.66
76024;BME280;64719;52.124;6.226;2022-11-18T09:45:50;100338.31;;;17.98;79.53
76024;BME280;64719;52.124;6.226;2022-11-18T09:48:21;100338.69;;;16.03;78.39
76024;BME280;64719;52.124;6.226;2022-11-18T09:51:10;100339.78;;;17.33;71.89
76024;BME280;64719;52.124;6.226;2022-11-18T09:53:38;100343.56;;;18.18;78.44
76024;BME280;64719;52.124;6.226;2022-11-18T09:56:11;100341.03;;;18.45;80.23
76024;BME280;64719;52.124;6.226;2022-11-18T09:58:39;100345.97;;;16.77;77.90
76024;BME280;64719;52.124;6.226;2022-11-18T10:01:10;100352.97;;;17.31;84.27
76024;BME280;64719;52.124;6.226;2022-11-18T10:03:38;100345.94;;;17.77;82.58
76024;BME280;64719;52.124;6.226;2022-11-18T10:06:15;100354.38;;;16.90;77.68
76024;BME280;64719;52.124;6.226;2022-11-18T10:08:45;100346.16;;;15.78;83.70
76024;BME280;64719;52.124;6.226;2022-11-18T10:11:17;100349.25;;;14.14;82.20
76024;BME280;64719;52.124;6.226;2022-11-18T10:13:53;100354.38;;;14.88;82.77
76024;BME280;64719;52.124;6.226;2022-11-18T10:16:30;100355.91;;;16.68;81.21
76024;BME280;64719;52.124;6.226;2022-11-18T10:19:07;100362.31;;;16.92;82.81
76024;BME280;64719;52.124;6.226;2022-11-18T10:21:45;100370.94;;;17.76;72.41
76024;BME280;64719;52.124;6.226;2022-11-18T10:24:18;100367.00;;;14.12;80.51
76024;BME280;64719;52.124;6.226;2022-11-18T10:26:46;100363.34;;;14.68;82.07
76024;BME280;64719;52.124;6.226;2022-11-18T10:29:13;100367.03;;;16.86;83.29
76024;BME280;64719;52.124;6.226;2022-11-18T10:31:52;100356.03;;;15.29;80.96
76024;BME280;64719;52.124;6.226;2022-11-18T10:34:19;100366.66;;;13.15;84.85
76024;BME280;64719;52.124;6.226;2022-11-18T10:36:57;100359.09;;;12.42;88.33
76024;BME280;64719;52.124;6.226;2022-11-18T10:39:24;100368.81;;;14.58;79.54
76024;BME280;64719;52.124;6.226;2022-11-18T10:41:55;100380.78;;;13.12;83.24
76024;BME280;64719;52.124;6.226;2022-11-18T10:44:31;100367.66;;;12.82;86.79
76024;BME280;64719;52.124;6.226;2022-11-18T10:47:21;100380.97;;;13.79;81.49
76024;BME280;64719;52.124;6.226;2022-11-18T10:49:48;100377.78;;;13.50;82.18
76024;BME280;64719;52.124;6.226;2022-11-18T10:52:14;100379.53;;;12.45;84.17
76024;BME280;64719;52.124;6.226;2022-11-18T10:54:41;100376.19;;;13.18;83.35
76024;BME280;64719;52.124;6.226;2022-11-18T10:57:15;100381.66;;;12.43;83.43
76024;BME280;64719;52.124;6.226;2022-11-18T10:59:46;100381.03;;;11.71;88.03
76024;BME280;64719;52.124;6.226;2022-11-18T11:02:17;100383.84;;;11.98;86.49
76024;BME280;64719;52.124;6.226;2022-11-18T11:04:45;100387.44;;;12.46;87.23
76024;BME280;64719;52.124;6.226;2022-11-18T11:07:25;100392.03;;;11.81;86.61
76024;BME280;64719;52.124;6.226;2022-11-18T11:09:59;100393.13;;;11.80;89.39
76024;BME280;64719;52.124;6.226;2022-11-18T11:12:30;100399.84;;;12.37;86.32
76024;BME280;64719;52.124;6.226;2022-11-18T11:14:59;100404.78;;;12.19;89.10
76024;BME280;64719;52.124;6.226;2022-11-18T11:17:29;100411.53;;;11.95;87.71
76024;BME280;64719;52.124;6.226;2022-11-18T11:20:03;100401.78;;;11.77;88.46
76024;BME280;64719;52.124;6.226;2022-11-18T11:22:30;100406.47;;;12.68;85.48
76024;BME280;64719;52.124;6.226;2022-11-18T11:24:56;100400.91;;;12.84;84.95
76024;BME280;64719;52.124;6.226;2022-11-18T11:27:38;100398.06;;;12.26;83.49
76024;BME280;64719;52.124;6.226;2022-11-18T11:30:13;100403.78;;;11.65;86.47
76024;BME280;64719;52.124;6.226;2022-11-18T11:35:41;100407.78;;;11.30;89.40
76024;BME280;64719;52.124;6.226;2022-11-18T11:38:17;100410.84;;;11.33;87.92
76024;BME280;64719;52.124;6.226;2022-11-18T11:40:53;100413.50;;;10.83;88.97
76024;BME280;64719;52.124;6.226;2022-11-18T11:43:33;100409.59;;;11.07;88.67
76024;BME280;64719;52.124;6.226;2022-11-18T11:46:17;100418.22;;;11.54;87.49
76024;BME280;64719;52.124;6.226;2022-11-18T11:48:54;100416.13;;;11.23;88.50
76024;BME280;64719;52.124;6.226;2022-11-18T11:51:26;100415.91;;;11.13;87.95
76024;BME280;64719;52.124;6.226;2022-11-18T11:54:09;100419.44;;;10.97;88.20
76024;BME280;64719;52.124;6.226;2022-11-18T11:56:44;100422.38;;;10.79;89.67
76024;BME280;64719;52.124;6.226;2022-11-18T11:59:19;100415.16;;;11.01;89.88
76024;BME280;64719;52.124;6.226;2022-11-18T12:02:14;100416.75;;;10.97;88.21
76024;BME280;64719;52.124;6.226;2022-11-18T12:04:49;100421.09;;;11.14;88.54
76024;BME280;64719;52.124;6.226;2022-11-18T12:07:18;100419.19;;;10.82;89.63
76024;BME280;64719;52.124;6.226;2022-11-18T12:09:58;100420.25;;;10.81;87.89
76024;BME280;64719;52.124;6.226;2022-11-18T12:12:32;100424.13;;;11.63;88.25
76024;BME280;64719;52.124;6.226;2022-11-18T12:15:18;100429.28;;;11.81;86.58
76024;BME280;64719;52.124;6.226;2022-11-18T12:17:52;100428.22;;;11.49;88.70
76024;BME280;64719;52.124;6.226;2022-11-18T12:20:35;100433.53;;;11.60;85.29
76024;BME280;64719;52.124;6.226;2022-11-18T12:23:10;100434.31;;;11.72;85.28
76024;BME280;64719;52.124;6.226;2022-11-18T12:25:49;100428.28;;;11.37;86.82
76024;BME280;64719;52.124;6.226;2022-11-18T12:28:21;100430.34;;;11.13;88.59
76024;BME280;64719;52.124;6.226;2022-11-18T12:30:50;100430.09;;;11.15;91.09
76024;BME280;64719;52.124;6.226;2022-11-18T12:33:43;100440.81;;;11.22;88.38
76024;BME280;64719;52.124;6.226;2022-11-18T12:36:23;100441.09;;;11.25;89.47
76024;BME280;64719;52.124;6.226;2022-11-18T12:38:50;100444.91;;;11.24;91.19
76024;BME280;64719;52.124;6.226;2022-11-18T12:41:51;100447.72;;;11.13;88.77
76024;BME280;64719;52.124;6.226;2022-11-18T12:44:36;100443.78;;;11.53;86.26
76024;BME280;64719;52.124;6.226;2022-11-18T12:47:04;100442.63;;;11.82;85.74
76024;BME280;64719;52.124;6.226;2022-11-18T12:52:59;100450.31;;;11.07;86.84
76024;BME280;64719;52.124;6.226;2022-11-18T12:55:30;100450.44;;;11.29;86.98
76024;BME280;64719;52.124;6.226;2022-11-18T12:57:58;100447.69;;;10.96;89.92
76024;BME280;64719;52.124;6.226;2022-11-18T13:00:32;100452.59;;;10.71;88.48
76024;BME280;64719;52.124;6.226;2022-11-18T13:03:20;100455.81;;;10.68;88.42
76024;BME280;64719;52.124;6.226;2022-11-18T13:05:47;100456.69;;;10.85;91.37
76024;BME280;64719;52.124;6.226;2022-11-18T13:08:16;100464.63;;;11.03;90.04
76024;BME280;64719;52.124;6.226;2022-11-18T13:10:46;100471.06;;;11.75;88.11
76024;BME280;64719;52.124;6.226;2022-11-18T13:13:22;100467.47;;;12.72;85.13
76024;BME280;64719;52.124;6.226;2022-11-18T13:15:50;100471.78;;;12.25;84.26
76024;BME280;64719;52.124;6.226;2022-11-18T13:18:46;100474.34;;;11.77;85.16